KRBD/RBD METAR and TAF weather

Enter ICAO airport designator
Station Type Date Time Source
KRBD METAR 2021/01/17 18:53 UTC NOAA

KRBD 171853Z 33013G17KT 10SM CLR 14/M05 A3011 RMK AO2 SLP194 T01441050 $


Station Type Date Time Source
KRBD Decoded METAR 2021/01/17 18:53 UTC NOAA

DALLAS EXECUTIVE AIRPORT, TX, United States (KRBD) 32-41N 096-52W 203M
Jan 17, 2021 - 01:53 PM EST / 2021.01.17 1853 UTC
Wind: from the NNW (330 degrees) at 15 MPH (13 KT) gusting to 20 MPH (17 KT):0
Visibility: 10 mile(s):0
Sky conditions: clear
Temperature: 57.9 F (14.4 C)
Dew Point: 23.0 F (-5.0 C)
Relative Humidity: 25%
Pressure (altimeter): 30.11 in. Hg (1019 hPa)
ob: KRBD 171853Z 33013G17KT 10SM CLR 14/M05 A3011 RMK AO2 SLP194 T01441050
cycle: 19

Station Type Date Time Source
KRBD TAF UTC NOAA

Error!

Example: see airport list